createdAt,value
2018-01-12T00:02:14.759Z,39.13
2018-01-12T00:07:15.794Z,35.90
2018-01-12T00:12:16.782Z,34.00
2018-01-12T00:17:17.788Z,36.73
2018-01-12T00:22:18.799Z,33.80
2018-01-12T00:27:20.775Z,34.60
2018-01-12T00:32:21.778Z,32.30
2018-01-12T00:37:23.766Z,31.77
2018-01-12T00:42:25.561Z,30.90
2018-01-12T00:47:26.615Z,29.30
2018-01-12T00:52:27.838Z,34.53
2018-01-12T00:57:28.882Z,34.77
2018-01-12T01:02:29.943Z,34.00
2018-01-12T01:07:31.120Z,37.10
2018-01-12T01:12:32.875Z,35.23
2018-01-12T01:17:34.075Z,34.67
2018-01-12T01:22:35.083Z,40.77
2018-01-12T01:27:36.846Z,33.40
2018-01-12T01:32:38.079Z,35.33
2018-01-12T01:37:39.855Z,34.10
2018-01-12T01:42:40.859Z,33.10
2018-01-12T01:47:42.800Z,39.13
2018-01-12T01:52:43.792Z,36.13
2018-01-12T01:57:44.840Z,35.27
2018-01-12T02:02:46.578Z,32.47
2018-01-12T02:07:47.599Z,38.50
2018-01-12T02:12:49.384Z,37.03
2018-01-12T02:17:50.543Z,37.37
2018-01-12T02:22:51.554Z,36.10
2018-01-12T02:27:52.942Z,35.77
2018-01-12T02:32:54.011Z,32.67
2018-01-12T02:37:55.210Z,36.30
2018-01-12T02:42:56.395Z,35.53
2018-01-12T02:47:57.589Z,36.23
2018-01-12T02:52:58.719Z,37.63
2018-01-12T02:57:59.752Z,43.33
2018-01-12T03:03:00.943Z,39.87
2018-01-12T03:08:02.041Z,41.43
2018-01-12T03:13:03.807Z,40.60
2018-01-12T03:18:05.015Z,36.13
2018-01-12T03:23:06.004Z,36.67
2018-01-12T03:28:07.078Z,40.80
2018-01-12T03:33:08.380Z,39.30
2018-01-12T03:38:09.386Z,41.40
2018-01-12T03:43:10.643Z,43.13
2018-01-12T03:48:11.669Z,38.60
2018-01-12T03:53:12.693Z,43.23
2018-01-12T03:58:13.915Z,44.57
2018-01-12T04:03:14.967Z,39.70
2018-01-12T04:08:16.163Z,37.80
2018-01-12T04:13:17.175Z,37.70
2018-01-12T04:18:18.434Z,35.23
2018-01-12T04:23:19.434Z,42.97
2018-01-12T04:28:20.435Z,36.47
2018-01-12T04:33:22.187Z,38.27
2018-01-12T04:38:23.392Z,38.77
2018-01-12T04:43:24.420Z,41.80
2018-01-12T04:48:25.419Z,54.60
2018-01-12T04:53:26.499Z,53.87
2018-01-12T04:58:27.576Z,50.63
2018-01-12T05:03:28.876Z,47.17
2018-01-12T05:08:29.832Z,47.00
2018-01-12T05:13:31.587Z,58.50
2018-01-12T05:18:32.608Z,51.43
2018-01-12T05:23:33.623Z,58.00
2018-01-12T05:28:34.615Z,67.03
2018-01-12T05:33:35.832Z,60.30
2018-01-12T05:38:36.846Z,65.30
2018-01-12T05:43:38.590Z,65.73
2018-01-12T05:48:39.798Z,75.60
2018-01-12T05:53:40.800Z,88.67
2018-01-12T05:58:41.808Z,85.23
2018-01-12T06:03:56.078Z,97.83
2018-01-12T06:08:57.106Z,93.10
2018-01-12T06:13:58.331Z,100.40
2018-01-12T06:18:59.343Z,87.13
2018-01-12T06:24:01.078Z,83.03
2018-01-12T06:29:02.079Z,80.03
2018-01-12T06:34:03.095Z,82.47
2018-01-12T06:39:04.108Z,84.40
2018-01-12T06:44:05.123Z,91.10
2018-01-12T06:49:06.118Z,104.13
2018-01-12T06:54:07.129Z,89.07
2018-01-12T06:59:08.138Z,84.00
2018-01-12T07:04:09.138Z,87.80
2018-01-12T07:09:10.159Z,80.20
2018-01-12T07:14:11.187Z,88.97
2018-01-12T07:19:12.436Z,91.50
2018-01-12T07:24:13.435Z,73.00
2018-01-12T07:29:14.436Z,68.80
2018-01-12T07:34:16.174Z,70.73
2018-01-12T07:39:17.249Z,85.33
2018-01-12T07:44:18.223Z,73.73
2018-01-12T07:49:19.222Z,70.43
2018-01-12T07:54:20.432Z,63.77
2018-01-12T07:59:21.455Z,64.77
2018-01-12T08:04:22.639Z,64.37
2018-01-12T08:09:24.383Z,59.10
2018-01-12T08:14:25.404Z,59.40
2018-01-12T08:19:26.410Z,55.70
2018-01-12T08:24:28.146Z,55.70
2018-01-12T08:29:29.181Z,61.37
2018-01-12T08:34:37.790Z,61.87
2018-01-12T08:39:38.807Z,62.63
2018-01-12T08:44:39.822Z,66.30
2018-01-12T08:49:41.562Z,61.07
2018-01-12T08:54:42.572Z,68.70
2018-01-12T08:59:43.584Z,70.07
2018-01-12T09:04:45.351Z,67.87
2018-01-12T09:09:46.354Z,84.57
2018-01-12T09:14:48.994Z,87.50
2018-01-12T09:19:50.227Z,84.87
2018-01-12T09:24:51.227Z,87.70
2018-01-12T09:29:52.503Z,73.73
2018-01-12T09:35:00.503Z,71.47
2018-01-12T09:45:41.820Z,64.87
2018-01-12T09:50:43.844Z,68.17
2018-01-12T09:55:44.880Z,69.17
2018-01-12T10:00:46.155Z,72.93
2018-01-12T10:05:48.116Z,83.23
2018-01-12T10:10:49.584Z,71.47
2018-01-12T10:15:50.913Z,71.37
2018-01-12T10:20:51.974Z,71.23
2018-01-12T10:25:53.312Z,73.20
2018-01-12T10:30:57.554Z,69.57
2018-01-12T10:35:59.059Z,72.53
2018-01-12T10:41:13.283Z,66.07
2018-01-12T10:46:41.695Z,70.50
2018-01-12T10:51:43.968Z,67.57
2018-01-12T10:56:45.140Z,70.43
2018-01-12T11:01:46.709Z,65.47
2018-01-12T11:06:47.827Z,63.27
2018-01-12T11:11:49.157Z,69.63
2018-01-12T11:16:51.610Z,68.03
2018-01-12T11:21:52.698Z,56.17
2018-01-12T11:26:53.932Z,57.33
2018-01-12T11:31:55.074Z,62.93
2018-01-12T11:36:56.474Z,62.83
2018-01-12T11:41:58.094Z,60.07
2018-01-12T11:46:59.119Z,63.73
2018-01-12T11:52:01.295Z,63.00
2018-01-12T11:57:02.782Z,60.03
2018-01-12T12:02:04.037Z,55.63
2018-01-12T12:07:06.194Z,53.80
2018-01-12T12:12:07.307Z,58.67
2018-01-12T12:17:08.752Z,64.80
2018-01-12T12:22:09.979Z,62.47
2018-01-12T12:27:11.829Z,58.83
2018-01-12T12:32:12.943Z,57.53
2018-01-12T12:37:14.963Z,65.83
2018-01-12T12:42:16.309Z,63.87
2018-01-12T12:47:18.239Z,69.60
2018-01-12T12:52:19.647Z,68.00
2018-01-12T12:57:24.997Z,63.70
2018-01-12T13:02:26.519Z,60.20
2018-01-12T13:07:27.623Z,64.90
2018-01-12T13:12:29.484Z,60.63
2018-01-12T13:17:30.694Z,61.03
2018-01-12T13:22:31.778Z,66.47
2018-01-12T13:27:33.032Z,70.07
2018-01-12T13:32:34.676Z,72.70
2018-01-12T13:37:38.863Z,69.87
2018-01-12T13:42:40.167Z,83.83
2018-01-12T13:47:41.312Z,68.80
2018-01-12T13:52:43.480Z,81.73
2018-01-12T13:57:44.878Z,73.90
2018-01-12T14:02:46.418Z,72.03
2018-01-12T14:07:48.615Z,74.43
2018-01-12T14:12:50.065Z,71.47
2018-01-12T14:17:51.197Z,81.63
2018-01-12T14:22:53.298Z,79.03
2018-01-12T14:27:55.327Z,84.00
2018-01-12T14:32:57.886Z,84.70
2018-01-12T14:38:00.448Z,79.87
2018-01-12T14:43:02.835Z,84.83
2018-01-12T14:48:03.858Z,84.80
2018-01-12T14:53:06.059Z,79.17
2018-01-12T14:58:07.087Z,78.00
2018-01-12T15:03:08.502Z,71.90
2018-01-12T15:08:11.691Z,73.67
2018-01-12T15:13:13.843Z,62.13
2018-01-12T15:18:17.239Z,72.43
2018-01-12T15:23:18.642Z,48.00
2018-01-12T15:28:20.005Z,58.07
2018-01-12T15:33:21.582Z,50.37
2018-01-12T15:38:22.687Z,45.50
2018-01-12T15:43:24.880Z,39.77
2018-01-12T15:48:26.832Z,42.20
2018-01-12T15:53:41.516Z,44.00
2018-01-12T15:58:43.086Z,49.10
2018-01-12T16:03:46.192Z,48.10
2018-01-12T16:08:47.524Z,47.80
2018-01-12T16:13:48.685Z,46.37
2018-01-12T16:18:54.091Z,49.60
2018-01-12T16:23:57.247Z,46.97
2018-01-12T16:28:58.659Z,47.33
2018-01-12T16:33:59.675Z,43.97
2018-01-12T16:39:00.679Z,45.73
2018-01-12T16:44:01.698Z,60.67
2018-01-12T16:49:02.739Z,51.50
2018-01-12T16:54:04.836Z,53.33
2018-01-12T16:59:07.366Z,47.30
2018-01-12T17:04:08.645Z,40.50
2018-01-12T17:09:09.722Z,40.63
2018-01-12T17:14:11.267Z,47.27
2018-01-12T17:19:13.247Z,44.10
2018-01-12T17:24:14.279Z,41.80
2018-01-12T17:29:15.643Z,48.20
2018-01-12T17:34:17.030Z,45.63
2018-01-12T17:39:18.050Z,40.10
2018-01-12T17:44:19.642Z,45.77
2018-01-12T17:49:20.855Z,50.77
2018-01-12T17:54:21.958Z,47.05
2018-01-12T17:59:22.983Z,41.47
2018-01-12T18:04:24.099Z,42.10
2018-01-12T18:09:26.772Z,42.30
2018-01-12T18:14:27.835Z,37.87
2018-01-12T18:19:28.828Z,43.17
2018-01-12T18:24:30.579Z,40.00
2018-01-12T18:29:31.605Z,41.40
2018-01-12T18:34:32.713Z,47.07
2018-01-12T18:39:34.446Z,42.80
2018-01-12T18:44:35.446Z,46.40
2018-01-12T18:49:36.446Z,41.13
2018-01-12T18:54:38.357Z,40.73
2018-01-12T18:59:39.763Z,45.60
2018-01-12T19:04:41.663Z,45.70
2018-01-12T19:09:43.394Z,42.67
2018-01-12T19:14:44.403Z,38.83
2018-01-12T19:19:45.444Z,36.40
2018-01-12T19:24:46.703Z,33.80
2018-01-12T19:29:51.291Z,37.30
2018-01-12T19:34:53.995Z,37.80
2018-01-12T19:39:55.763Z,40.00
2018-01-12T19:44:57.780Z,34.47
2018-01-12T19:49:59.316Z,40.50
2018-01-12T19:55:00.440Z,41.30
2018-01-12T20:00:01.465Z,43.93
2018-01-12T20:05:20.489Z,42.30
2018-01-12T20:10:22.328Z,36.83
2018-01-12T20:15:23.447Z,41.07
2018-01-12T20:20:24.739Z,42.23
2018-01-12T20:25:25.758Z,41.97
2018-01-12T20:30:27.509Z,42.03
2018-01-12T20:35:28.510Z,46.70
2018-01-12T20:40:29.510Z,43.07
2018-01-12T20:45:31.286Z,51.70
2018-01-12T20:50:32.291Z,51.40
2018-01-12T20:55:34.262Z,46.63
2018-01-12T21:00:35.258Z,52.07
2018-01-12T21:05:36.291Z,51.70
2018-01-12T21:10:37.290Z,53.17
2018-01-12T21:15:38.295Z,50.17
2018-01-12T21:20:39.479Z,51.53
2018-01-12T21:25:40.466Z,52.23
2018-01-12T21:30:41.458Z,48.43
2018-01-12T21:35:42.459Z,60.97
2018-01-12T21:40:43.456Z,47.97
2018-01-12T21:45:45.192Z,50.57
2018-01-12T21:50:46.393Z,56.47
2018-01-12T21:55:47.607Z,50.33
2018-01-12T22:00:49.124Z,55.13
2018-01-12T22:05:50.359Z,47.27
2018-01-12T22:10:51.597Z,58.83
2018-01-12T22:15:53.451Z,49.53
2018-01-12T22:20:54.780Z,49.37
2018-01-12T22:25:56.255Z,48.63
2018-01-12T22:30:57.527Z,49.73
2018-01-12T22:35:59.133Z,57.53
2018-01-12T22:41:00.532Z,48.53
2018-01-12T22:46:02.827Z,53.07
2018-01-12T22:51:04.533Z,49.73
2018-01-12T22:56:07.389Z,51.57
2018-01-12T23:01:08.695Z,46.03
2018-01-12T23:06:09.750Z,54.77
2018-01-12T23:11:11.824Z,49.57
2018-01-12T23:16:14.334Z,44.87
2018-01-12T23:21:15.967Z,51.90
2018-01-12T23:26:17.572Z,44.10
2018-01-12T23:31:19.370Z,47.03
2018-01-12T23:36:20.552Z,43.63
2018-01-12T23:41:21.542Z,48.57
2018-01-12T23:46:22.719Z,43.43
2018-01-12T23:51:24.157Z,42.53
2018-01-12T23:56:25.418Z,49.10
